Time;durP1;ratioP1;P1;durP2;ratioP2;P2;SDS_P1;SDS_P2;PMS_P1;PMS_P2;Temp;Humidity;BMP_temperature;BMP_pressure;BME280_temperature;BME280_humidity;BME280_pressure;Samples;Min_cycle;Max_cycle;Signal;HPM_P1;HPM_P2
2022/12/13 04:35:12;;;;;;;;;;;23.90;43.40;;;;;;5071586;28;19935;-67
2022/12/13 04:37:38;;;;;;;;;;;23.90;42.70;;;;;;5090730;28;20298;-67
2022/12/13 04:40:05;;;;;;;;;;;23.90;42.80;;;;;;5090459;28;19951;-66
2022/12/13 04:42:32;;;;;;;;;;;23.80;42.30;;;;;;5092041;28;19915;-66
2022/12/13 04:44:58;;;;;;;;;;;23.80;43.10;;;;;;5088761;28;20308;-67
2022/12/13 04:47:25;;;;;;;;;;;23.70;42.10;;;;;;5089891;28;19920;-67
2022/12/13 04:49:52;;;;;;;;;;;23.70;41.70;;;;;;5091089;28;19946;-66
2022/12/13 04:52:19;;;;;;;;;;;23.70;42.50;;;;;;5091842;28;19955;-67
2022/12/13 04:54:46;;;;;;;;;;;23.70;42.50;;;;;;5091277;28;19919;-66
2022/12/13 04:57:12;;;;;;;;;;;23.60;41.40;;;;;;5091587;28;19915;-66
2022/12/13 04:59:39;;;;;;;;;;;23.50;41.40;;;;;;5091453;28;20061;-66
2022/12/13 05:02:06;;;;;;;;;;;23.50;42.00;;;;;;5091873;28;19909;-66
2022/12/13 05:04:33;;;;;;;;;;;23.50;41.40;;;;;;5089738;28;19919;-66
2022/12/13 05:07:00;;;;;;;;;;;23.60;42.30;;;;;;5085233;28;20319;-66
2022/12/13 05:09:27;;;;;;;;;;;23.60;42.80;;;;;;5091934;28;20055;-66
2022/12/13 05:11:53;;;;;;;;;;;23.60;41.90;;;;;;5090954;28;19912;-66
2022/12/13 05:14:20;;;;;;;;;;;23.70;42.90;;;;;;5090234;28;20366;-66
2022/12/13 05:16:47;;;;;;;;;;;23.70;44.00;;;;;;5091632;28;20027;-66
2022/12/13 05:19:13;;;;;;;;;;;23.70;45.00;;;;;;5091371;28;19916;-66
2022/12/13 05:21:40;;;;;;;;;;;23.70;44.70;;;;;;5086146;28;20005;-66
2022/12/13 05:24:07;;;;;;;;;;;23.60;45.00;;;;;;5090185;28;19908;-67
2022/12/13 05:26:33;;;;;;;;;;;23.60;45.30;;;;;;5090044;28;19948;-66
2022/12/13 05:29:00;;;;;;;;;;;23.60;46.90;;;;;;5090120;28;19912;-66
2022/12/13 05:31:26;;;;;;;;;;;23.60;47.10;;;;;;5090019;28;19931;-66
2022/12/13 05:33:53;;;;;;;;;;;23.60;45.00;;;;;;5090208;28;19908;-66
2022/12/13 05:36:24;;;;;;;;;;;23.60;45.00;;;;;;5089715;28;20468;-66
2022/12/13 05:38:53;;;;;;;;;;;23.60;44.80;;;;;;5090008;28;19942;-66
2022/12/13 05:41:23;;;;;;;;;;;23.60;46.10;;;;;;5089641;28;19912;-66
2022/12/13 05:43:50;;;;;;;;;;;23.50;47.60;;;;;;5090391;28;19919;-66
2022/12/13 05:46:17;;;;;;;;;;;23.50;47.20;;;;;;5091130;28;20409;-66
2022/12/13 05:48:43;;;;;;;;;;;23.40;46.70;;;;;;5090434;28;19948;-66
2022/12/13 05:51:10;;;;;;;;;;;23.40;48.10;;;;;;5090276;28;19912;-66
2022/12/13 05:53:37;;;;;;;;;;;23.30;47.00;;;;;;5087662;28;20034;-66
2022/12/13 05:56:03;;;;;;;;;;;23.30;46.60;;;;;;5087189;28;19920;-66
2022/12/13 05:58:30;;;;;;;;;;;23.30;46.70;;;;;;5090500;28;19964;-67
2022/12/13 06:01:03;;;;;;;;;;;23.30;46.80;;;;;;5079831;28;19912;-66
2022/12/13 06:03:30;;;;;;;;;;;23.30;46.60;;;;;;5087855;28;20365;-66
2022/12/13 06:05:59;;;;;;;;;;;23.30;46.10;;;;;;5091736;28;19908;-65
2022/12/13 06:08:26;;;;;;;;;;;23.30;46.80;;;;;;5091249;28;19912;-65
2022/12/13 06:10:56;;;;;;;;;;;23.20;46.50;;;;;;5091260;28;19916;-65
2022/12/13 06:13:23;;;;;;;;;;;23.30;43.70;;;;;;5092098;28;19916;-65
2022/12/13 06:15:49;;;;;;;;;;;23.20;44.40;;;;;;5089632;28;19956;-66
2022/12/13 06:18:16;;;;;;;;;;;23.20;44.60;;;;;;5091176;28;19924;-65
2022/12/13 06:20:42;;;;;;;;;;;23.20;43.40;;;;;;5072316;28;19963;-65
2022/12/13 06:23:09;;;;;;;;;;;23.10;44.60;;;;;;5091375;28;19916;-65
2022/12/13 06:25:36;;;;;;;;;;;23.10;45.00;;;;;;5091582;28;19919;-66
2022/12/13 06:28:02;;;;;;;;;;;23.10;45.70;;;;;;5091175;28;20041;-65
2022/12/13 06:30:29;;;;;;;;;;;23.00;46.60;;;;;;5089356;28;19923;-65
2022/12/13 07:10:44;;;;;;;;;;;22.70;51.90;;;;;;5038662;28;20497;-65
2022/12/13 07:13:11;;;;;;;;;;;22.70;51.70;;;;;;5051937;28;19956;-66
2022/12/13 07:15:37;;;;;;;;;;;22.60;51.80;;;;;;5049214;28;20395;-65
2022/12/13 07:18:04;;;;;;;;;;;22.60;51.00;;;;;;5053389;28;19925;-65
2022/12/13 07:20:31;;;;;;;;;;;22.50;51.80;;;;;;5034350;28;19913;-64
2022/12/13 07:22:57;;;;;;;;;;;22.50;53.30;;;;;;5055192;28;20414;-64
2022/12/13 07:25:24;;;;;;;;;;;22.50;53.20;;;;;;5047685;28;20021;-64
2022/12/13 07:27:55;;;;;;;;;;;22.40;53.50;;;;;;5050357;28;20370;-64
2022/12/13 07:30:21;;;;;;;;;;;22.40;53.10;;;;;;5047299;28;19920;-64
2022/12/13 07:32:48;;;;;;;;;;;22.40;53.90;;;;;;5048632;28;20290;-64
2022/12/13 07:35:14;;;;;;;;;;;22.40;53.50;;;;;;5058409;28;19917;-65
2022/12/13 07:37:42;;;;;;;;;;;22.30;53.90;;;;;;5049052;28;19912;-66
2022/12/13 07:40:09;;;;;;;;;;;22.30;53.90;;;;;;5060614;28;19917;-65
2022/12/13 07:42:35;;;;;;;;;;;22.30;54.70;;;;;;5043501;28;19912;-65
2022/12/13 07:45:02;;;;;;;;;;;22.30;54.30;;;;;;5050398;28;19920;-65
2022/12/13 07:47:29;;;;;;;;;;;22.20;54.80;;;;;;5049424;28;20250;-64
2022/12/13 07:49:56;;;;;;;;;;;22.20;55.40;;;;;;5047555;28;20007;-65
2022/12/13 07:52:23;;;;;;;;;;;22.10;55.50;;;;;;5046993;28;20461;-66
2022/12/13 07:54:49;;;;;;;;;;;22.10;55.90;;;;;;5040532;28;19913;-67
2022/12/13 07:57:16;;;;;;;;;;;22.10;56.20;;;;;;5049305;28;20378;-66
2022/12/13 07:59:43;;;;;;;;;;;22.10;56.00;;;;;;5045802;28;20286;-65
2022/12/13 08:02:11;;;;;;;;;;;22.10;56.00;;;;;;5043775;28;19916;-65
2022/12/13 08:04:38;;;;;;;;;;;22.10;56.30;;;;;;5031088;28;19921;-66
2022/12/13 08:07:08;;;;;;;;;;;22.10;56.40;;;;;;5049404;28;19912;-65
2022/12/13 08:09:34;;;;;;;;;;;22.10;57.20;;;;;;5046992;28;20370;-65
2022/12/13 08:12:01;;;;;;;;;;;22.00;57.10;;;;;;5048344;28;19921;-65
2022/12/13 08:14:27;;;;;;;;;;;22.00;55.70;;;;;;5048322;28;20310;-65
2022/12/13 08:16:54;;;;;;;;;;;22.00;56.10;;;;;;5040262;28;19923;-66
2022/12/13 08:19:21;;;;;;;;;;;22.00;57.60;;;;;;5049565;28;19920;-66
2022/12/13 08:21:47;;;;;;;;;;;22.00;57.80;;;;;;5045464;28;19921;-65
2022/12/13 08:24:14;;;;;;;;;;;21.90;57.10;;;;;;5047470;28;20382;-65
2022/12/13 08:26:40;;;;;;;;;;;21.80;56.70;;;;;;5049043;28;19916;-65
2022/12/13 08:29:07;;;;;;;;;;;21.90;57.10;;;;;;5046452;28;19917;-64
2022/12/13 08:31:34;;;;;;;;;;;21.90;57.40;;;;;;5046419;28;20379;-65
2022/12/13 08:34:00;;;;;;;;;;;21.90;57.40;;;;;;5049077;28;19980;-64
2022/12/13 08:36:27;;;;;;;;;;;21.90;57.50;;;;;;5046520;28;19920;-64
2022/12/13 08:38:57;;;;;;;;;;;21.80;57.30;;;;;;5045096;28;19975;-65
2022/12/13 08:41:24;;;;;;;;;;;21.80;58.00;;;;;;5025031;28;20007;-68
2022/12/13 08:43:50;;;;;;;;;;;21.80;57.80;;;;;;5046481;28;19956;-67
2022/12/13 08:46:17;;;;;;;;;;;21.80;57.80;;;;;;5037229;28;19920;-65
2022/12/13 08:48:44;;;;;;;;;;;21.80;57.70;;;;;;5047385;28;20411;-65
2022/12/13 08:51:11;;;;;;;;;;;21.80;58.20;;;;;;5046139;28;19921;-65
2022/12/13 08:53:37;;;;;;;;;;;21.80;58.40;;;;;;5046472;28;19999;-66
2022/12/13 08:56:06;;;;;;;;;;;21.70;57.70;;;;;;5047217;28;19913;-65
2022/12/13 08:58:32;;;;;;;;;;;21.70;57.80;;;;;;5048863;28;19921;-65
2022/12/13 09:00:59;;;;;;;;;;;21.60;58.00;;;;;;5050232;28;19940;-66
2022/12/13 09:03:25;;;;;;;;;;;21.60;57.70;;;;;;5069197;28;19950;-67
2022/12/13 09:05:52;;;;;;;;;;;21.60;57.60;;;;;;5066892;28;19923;-65
2022/12/13 09:08:19;;;;;;;;;;;21.50;57.80;;;;;;5067378;28;19919;-66
2022/12/13 09:10:45;;;;;;;;;;;21.50;57.60;;;;;;5066571;28;20363;-64
2022/12/13 09:13:12;;;;;;;;;;;21.50;57.90;;;;;;5067701;28;19978;-65
2022/12/13 09:15:39;;;;;;;;;;;21.50;58.00;;;;;;5063830;28;19917;-66
2022/12/13 09:18:05;;;;;;;;;;;21.50;58.20;;;;;;5055803;28;20290;-66
2022/12/13 09:20:34;;;;;;;;;;;21.50;58.60;;;;;;5066594;28;19909;-64
2022/12/13 09:23:01;;;;;;;;;;;21.50;58.70;;;;;;5067322;28;19922;-66
2022/12/13 09:25:30;;;;;;;;;;;21.50;58.90;;;;;;5043585;28;20434;-66
2022/12/13 09:27:56;;;;;;;;;;;21.50;59.20;;;;;;5068303;28;19913;-66
2022/12/13 09:30:23;;;;;;;;;;;21.50;58.90;;;;;;5047322;28;19917;-66
2022/12/13 09:32:49;;;;;;;;;;;21.50;58.90;;;;;;5068587;28;20388;-66
2022/12/13 09:35:16;;;;;;;;;;;21.40;59.00;;;;;;5072419;28;19912;-66
2022/12/13 09:37:43;;;;;;;;;;;21.50;59.10;;;;;;5054121;28;19922;-66
2022/12/13 09:40:11;;;;;;;;;;;21.40;58.80;;;;;;5070571;28;19931;-67
2022/12/13 09:42:38;;;;;;;;;;;21.50;59.10;;;;;;5063875;28;19923;-66
2022/12/13 09:45:05;;;;;;;;;;;21.40;59.40;;;;;;5071850;28;19913;-65
2022/12/13 09:47:35;;;;;;;;;;;21.40;59.30;;;;;;5074098;28;19916;-66
2022/12/13 09:50:07;;;;;;;;;;;21.50;58.90;;;;;;5086228;28;21321;-66
2022/12/13 09:52:38;;;;;;;;;;;21.40;59.20;;;;;;5056163;28;20266;-66
2022/12/13 09:55:15;;;;;;;;;;;21.50;59.10;;;;;;5053591;28;19917;-66
2022/12/13 09:57:42;;;;;;;;;;;21.40;59.30;;;;;;5070395;28;20349;-66
2022/12/13 10:00:12;;;;;;;;;;;21.40;59.40;;;;;;5053002;28;20370;-66
2022/12/13 10:03:04;;;;;;;;;;;21.30;59.50;;;;;;5072166;28;20066;-66
2022/12/13 10:05:32;;;;;;;;;;;21.30;60.20;;;;;;5089864;28;19914;-66
2022/12/13 10:08:00;;;;;;;;;;;21.30;60.60;;;;;;5096340;28;19913;-67
2022/12/13 10:10:27;;;;;;;;;;;21.30;60.50;;;;;;5103669;28;19907;-67
2022/12/13 10:12:59;;;;;;;;;;;21.30;60.40;;;;;;5092523;28;20465;-66
2022/12/13 10:15:26;;;;;;;;;;;21.20;60.50;;;;;;5093162;28;20385;-67
2022/12/13 10:17:52;;;;;;;;;;;21.20;60.60;;;;;;5092878;28;19969;-66
2022/12/13 10:20:20;;;;;;;;;;;21.20;60.90;;;;;;5092685;28;20538;-65
2022/12/13 10:22:47;;;;;;;;;;;21.20;60.90;;;;;;5090915;28;19916;-66
2022/12/13 10:25:15;;;;;;;;;;;21.10;61.30;;;;;;5092742;28;19912;-67
2022/12/13 10:27:45;;;;;;;;;;;21.10;61.30;;;;;;5088599;28;19912;-66
2022/12/13 10:30:14;;;;;;;;;;;21.10;61.30;;;;;;5108231;28;19914;-67
2022/12/13 10:32:43;;;;;;;;;;;21.00;61.30;;;;;;5089831;28;19916;-67
2022/12/13 10:35:36;;;;;;;;;;;21.10;61.00;;;;;;5097003;28;19914;-65
2022/12/13 10:38:20;;;;;;;;;;;21.10;61.20;;;;;;5084355;28;19920;-66
2022/12/13 10:40:50;;;;;;;;;;;21.10;60.80;;;;;;5089062;28;19969;-66
2022/12/13 10:43:16;;;;;;;;;;;21.00;60.90;;;;;;5049263;28;20393;-66
2022/12/13 10:45:44;;;;;;;;;;;21.00;61.20;;;;;;5092592;28;20352;-66
2022/12/13 10:48:21;;;;;;;;;;;21.00;60.60;;;;;;5075773;28;19912;-66
2022/12/13 10:50:58;;;;;;;;;;;21.00;61.00;;;;;;5075830;28;19958;-65
2022/12/13 10:53:46;;;;;;;;;;;20.90;60.50;;;;;;5105700;28;20377;-66
2022/12/13 10:56:13;;;;;;;;;;;20.90;60.90;;;;;;5089808;28;19920;-66
2022/12/13 10:58:42;;;;;;;;;;;20.90;60.80;;;;;;5088370;28;19920;-66
2022/12/13 11:01:11;;;;;;;;;;;20.90;60.60;;;;;;5085309;28;19924;-66
2022/12/13 11:03:38;;;;;;;;;;;20.90;60.40;;;;;;5063151;28;20028;-65
2022/12/13 11:06:06;;;;;;;;;;;20.80;60.30;;;;;;5096689;28;20002;-65
2022/12/13 11:08:32;;;;;;;;;;;20.80;60.10;;;;;;5094607;28;19912;-66
2022/12/13 11:11:00;;;;;;;;;;;20.80;60.10;;;;;;5092421;28;20010;-66
2022/12/13 11:13:37;;;;;;;;;;;20.80;60.00;;;;;;5092081;28;19909;-66
2022/12/13 11:16:04;;;;;;;;;;;20.80;60.10;;;;;;5063450;28;19913;-66
2022/12/13 11:18:34;;;;;;;;;;;20.80;59.90;;;;;;5074991;28;20023;-66
2022/12/13 11:21:02;;;;;;;;;;;20.80;59.70;;;;;;5091204;28;19934;-66
2022/12/13 11:23:32;;;;;;;;;;;20.80;60.50;;;;;;5070090;28;20529;-66
2022/12/13 11:26:00;;;;;;;;;;;20.80;60.40;;;;;;5091099;28;19915;-66
2022/12/13 11:28:36;;;;;;;;;;;20.80;60.60;;;;;;5091654;28;19988;-65
2022/12/13 11:31:20;;;;;;;;;;;20.70;60.40;;;;;;5103994;28;20381;-65
2022/12/13 11:33:46;;;;;;;;;;;20.70;60.70;;;;;;5091508;28;20286;-66
2022/12/13 11:36:13;;;;;;;;;;;20.70;60.60;;;;;;5096649;28;19962;-66
2022/12/13 11:38:58;;;;;;;;;;;20.70;60.30;;;;;;5092200;28;19920;-67
2022/12/13 11:41:27;;;;;;;;;;;20.70;61.10;;;;;;5087449;28;19912;-66
2022/12/13 11:43:55;;;;;;;;;;;20.60;61.40;;;;;;5087351;28;19920;-66
2022/12/13 11:46:38;;;;;;;;;;;20.60;61.50;;;;;;5070148;28;19994;-66
2022/12/13 11:49:09;;;;;;;;;;;20.50;61.40;;;;;;5090029;28;20079;-66
2022/12/13 11:51:40;;;;;;;;;;;20.50;61.00;;;;;;5087718;28;19920;-66
2022/12/13 11:54:12;;;;;;;;;;;20.50;61.40;;;;;;5070664;28;20424;-66
2022/12/13 11:56:42;;;;;;;;;;;20.50;61.30;;;;;;5070386;28;19943;-67
2022/12/13 11:59:32;;;;;;;;;;;20.40;61.20;;;;;;5071095;28;19931;-66
2022/12/13 12:01:59;;;;;;;;;;;20.40;61.50;;;;;;5071013;28;19928;-65
2022/12/13 12:04:29;;;;;;;;;;;20.40;61.70;;;;;;5069842;28;20354;-65
2022/12/13 12:07:04;;;;;;;;;;;20.40;61.50;;;;;;5070238;28;19927;-65
2022/12/13 12:09:31;;;;;;;;;;;20.40;61.20;;;;;;5088779;28;20333;-65
2022/12/13 12:12:02;;;;;;;;;;;20.40;61.70;;;;;;5072140;28;19961;-64
2022/12/13 12:14:34;;;;;;;;;;;20.30;62.30;;;;;;5100124;28;19916;-65
2022/12/13 12:17:01;;;;;;;;;;;20.30;62.40;;;;;;5086008;28;19927;-66
2022/12/13 12:19:36;;;;;;;;;;;20.30;62.40;;;;;;5095992;28;19920;-66
2022/12/13 13:11:55;;;;;;;;;;;19.70;65.10;;;;;;4890471;26;19928;-71
2022/12/13 13:14:29;;;;;;;;;;;19.70;65.20;;;;;;5033488;28;19912;-71
2022/12/13 13:16:56;;;;;;;;;;;19.60;65.40;;;;;;5045741;28;19913;-71
2022/12/13 13:19:32;;;;;;;;;;;19.60;65.90;;;;;;5052075;28;20274;-71
2022/12/13 13:21:59;;;;;;;;;;;19.60;66.00;;;;;;5051201;28;20371;-71
2022/12/13 13:24:26;;;;;;;;;;;19.50;66.10;;;;;;5050972;28;19960;-71
2022/12/13 13:26:52;;;;;;;;;;;19.50;66.10;;;;;;5051793;28;19908;-72
2022/12/13 13:29:22;;;;;;;;;;;19.50;66.10;;;;;;5042314;28;20083;-71
2022/12/13 13:32:04;;;;;;;;;;;19.50;66.40;;;;;;5033281;28;19951;-71
2022/12/13 13:34:32;;;;;;;;;;;19.40;66.80;;;;;;5043336;28;19916;-71
2022/12/13 13:36:58;;;;;;;;;;;19.40;66.70;;;;;;5052021;28;20004;-71
2022/12/13 13:39:28;;;;;;;;;;;19.30;67.00;;;;;;5016323;28;20341;-71
2022/12/13 13:42:13;;;;;;;;;;;19.30;67.30;;;;;;5049029;28;19912;-71
2022/12/13 13:44:45;;;;;;;;;;;19.30;67.30;;;;;;5051140;28;19909;-71
2022/12/13 13:47:15;;;;;;;;;;;19.30;67.50;;;;;;5051424;28;20317;-71
2022/12/13 13:49:48;;;;;;;;;;;19.30;67.50;;;;;;5051007;28;19916;-71
2022/12/13 13:52:22;;;;;;;;;;;19.30;67.60;;;;;;5038472;28;19943;-71
2022/12/13 13:55:07;;;;;;;;;;;19.30;67.40;;;;;;5034250;28;19909;-71
2022/12/13 13:57:51;;;;;;;;;;;19.20;67.60;;;;;;5040429;28;19955;-71
2022/12/13 14:00:21;;;;;;;;;;;19.30;67.40;;;;;;5047690;28;19921;-71
2022/12/13 14:03:00;;;;;;;;;;;19.20;67.30;;;;;;5051704;28;20291;-72
2022/12/13 14:05:44;;;;;;;;;;;19.30;67.10;;;;;;5038794;28;20003;-71
2022/12/13 14:08:11;;;;;;;;;;;19.30;67.10;;;;;;5049925;28;20035;-71
2022/12/13 14:10:50;;;;;;;;;;;19.30;67.10;;;;;;5051236;28;19967;-71
2022/12/13 14:13:17;;;;;;;;;;;19.30;67.20;;;;;;5051351;28;19954;-71
2022/12/13 14:16:05;;;;;;;;;;;19.20;67.30;;;;;;5048746;28;19924;-71
2022/12/13 14:18:54;;;;;;;;;;;19.20;67.50;;;;;;5034201;28;19962;-71
2022/12/13 14:21:29;;;;;;;;;;;19.20;67.70;;;;;;5052803;28;19944;-71
2022/12/13 14:23:59;;;;;;;;;;;19.10;67.70;;;;;;5055171;28;19909;-71
2022/12/13 14:26:38;;;;;;;;;;;19.10;67.90;;;;;;5054147;28;19913;-71
2022/12/13 14:29:09;;;;;;;;;;;19.10;67.90;;;;;;5036713;28;19966;-71
2022/12/13 14:31:40;;;;;;;;;;;19.10;67.70;;;;;;5054245;28;19913;-71
2022/12/13 14:34:07;;;;;;;;;;;19.10;67.90;;;;;;5036494;28;19921;-71
2022/12/13 14:36:35;;;;;;;;;;;19.10;68.00;;;;;;5036437;28;19974;-71
2022/12/13 14:39:05;;;;;;;;;;;19.10;68.20;;;;;;5050426;28;20355;-71
2022/12/13 14:41:32;;;;;;;;;;;19.10;68.60;;;;;;5053690;28;19944;-71
2022/12/13 14:44:15;;;;;;;;;;;19.00;68.70;;;;;;5054425;28;19912;-71
2022/12/13 14:46:51;;;;;;;;;;;19.00;68.80;;;;;;5054506;28;19912;-73
2022/12/13 14:49:18;;;;;;;;;;;19.00;68.80;;;;;;5036469;28;19918;-73
2022/12/13 14:51:44;;;;;;;;;;;19.10;68.30;;;;;;5050681;28;19921;-71
2022/12/13 14:54:16;;;;;;;;;;;19.00;67.60;;;;;;5053656;28;20433;-71
2022/12/13 14:56:59;;;;;;;;;;;19.00;66.10;;;;;;5036050;28;19970;-72
2022/12/13 14:59:26;;;;;;;;;;;19.00;64.10;;;;;;5053845;28;19972;-71
2022/12/13 15:01:53;;;;;;;;;;;19.00;62.00;;;;;;5053179;28;20371;-72
2022/12/13 15:04:33;;;;;;;;;;;19.00;60.40;;;;;;5052467;28;19913;-72
2022/12/13 15:07:09;;;;;;;;;;;19.00;58.80;;;;;;5052774;28;19909;-72
2022/12/13 15:09:39;;;;;;;;;;;19.00;57.30;;;;;;5053246;28;20011;-72
2022/12/13 15:12:15;;;;;;;;;;;19.10;56.30;;;;;;5035844;28;19979;-72
2022/12/13 15:14:42;;;;;;;;;;;19.10;55.40;;;;;;5052764;28;20410;-72
2022/12/13 15:17:21;;;;;;;;;;;19.10;55.10;;;;;;5053311;28;19917;-72
2022/12/13 15:19:47;;;;;;;;;;;19.10;54.90;;;;;;5035301;28;19920;-71
2022/12/13 15:22:14;;;;;;;;;;;19.10;54.20;;;;;;5054024;28;19919;-71
2022/12/13 15:24:45;;;;;;;;;;;19.10;53.10;;;;;;5053717;28;19995;-72
2022/12/13 15:27:12;;;;;;;;;;;19.20;52.80;;;;;;5035090;28;19942;-72
2022/12/13 15:29:38;;;;;;;;;;;19.10;52.70;;;;;;5052663;28;19917;-72
2022/12/13 15:32:09;;;;;;;;;;;19.10;51.20;;;;;;5034816;28;19913;-72
2022/12/13 15:34:36;;;;;;;;;;;19.20;53.50;;;;;;5028328;28;20011;-72
2022/12/13 15:37:25;;;;;;;;;;;19.00;52.40;;;;;;5053968;28;20366;-72
2022/12/13 15:39:53;;;;;;;;;;;19.00;51.80;;;;;;5042678;28;20294;-72
2022/12/13 15:42:26;;;;;;;;;;;19.00;51.90;;;;;;5052873;28;20374;-72
2022/12/13 15:44:54;;;;;;;;;;;19.00;51.80;;;;;;5028629;28;19912;-72
2022/12/13 15:47:20;;;;;;;;;;;19.00;52.00;;;;;;5052126;28;19915;-72
2022/12/13 15:49:57;;;;;;;;;;;19.00;51.60;;;;;;5053392;28;19916;-72
2022/12/13 15:52:29;;;;;;;;;;;18.90;51.80;;;;;;5052328;28;19913;-72
2022/12/13 15:54:56;;;;;;;;;;;18.90;51.90;;;;;;5045396;28;19948;-72
2022/12/13 15:57:23;;;;;;;;;;;18.90;51.70;;;;;;5050071;28;20062;-72
2022/12/13 16:00:00;;;;;;;;;;;18.80;52.70;;;;;;5052839;28;20010;-72
2022/12/13 16:02:28;;;;;;;;;;;18.80;52.70;;;;;;5052560;28;20378;-72
2022/12/13 16:05:04;;;;;;;;;;;18.80;52.50;;;;;;5035293;28;19912;-72
2022/12/13 16:07:38;;;;;;;;;;;18.80;52.90;;;;;;5022348;28;19909;-72
2022/12/13 16:10:05;;;;;;;;;;;18.80;53.00;;;;;;5035888;28;19951;-71
2022/12/13 16:12:35;;;;;;;;;;;18.70;53.20;;;;;;5032268;28;19935;-72
2022/12/13 16:15:15;;;;;;;;;;;18.70;53.00;;;;;;5052307;28;19913;-72
2022/12/13 16:17:41;;;;;;;;;;;18.70;52.80;;;;;;5046002;28;19913;-72
2022/12/13 16:20:11;;;;;;;;;;;18.60;52.60;;;;;;5051992;28;20264;-72
2022/12/13 16:22:38;;;;;;;;;;;18.60;53.20;;;;;;5034944;28;19955;-72
2022/12/13 16:25:05;;;;;;;;;;;18.50;52.60;;;;;;5052780;28;19916;-72
2022/12/13 16:27:31;;;;;;;;;;;18.50;52.90;;;;;;5052393;28;19920;-72
2022/12/13 16:29:58;;;;;;;;;;;18.50;52.80;;;;;;5052766;28;19912;-72
2022/12/13 16:32:24;;;;;;;;;;;18.50;52.80;;;;;;5051855;28;19922;-72
2022/12/13 16:34:51;;;;;;;;;;;18.50;52.20;;;;;;5052888;28;20023;-72
2022/12/13 16:37:23;;;;;;;;;;;18.50;51.90;;;;;;5052105;28;19919;-72
2022/12/13 16:39:50;;;;;;;;;;;18.50;52.10;;;;;;5052521;28;20291;-72
2022/12/13 16:42:16;;;;;;;;;;;18.50;52.10;;;;;;5050846;28;19919;-72
2022/12/13 16:44:43;;;;;;;;;;;18.50;52.10;;;;;;5022765;28;20191;-72
2022/12/13 16:47:11;;;;;;;;;;;18.50;52.10;;;;;;5051299;28;20004;-72
2022/12/13 16:49:37;;;;;;;;;;;18.50;52.00;;;;;;5034677;28;19909;-72
2022/12/13 16:52:06;;;;;;;;;;;18.40;52.80;;;;;;5052029;28;20058;-72
2022/12/13 16:54:33;;;;;;;;;;;18.40;52.10;;;;;;5049029;28;19917;-72
2022/12/13 16:56:59;;;;;;;;;;;18.40;52.50;;;;;;5051335;28;20306;-72
2022/12/13 16:59:26;;;;;;;;;;;18.30;52.10;;;;;;5024205;28;20383;-72
2022/12/13 17:01:53;;;;;;;;;;;18.30;52.20;;;;;;5051834;28;19917;-72
2022/12/13 17:04:21;;;;;;;;;;;18.30;52.10;;;;;;5051544;28;19916;-72
2022/12/13 17:06:50;;;;;;;;;;;18.20;52.90;;;;;;5040874;28;19920;-72
2022/12/13 17:09:17;;;;;;;;;;;18.20;53.00;;;;;;5050836;28;19940;-72
2022/12/13 17:11:44;;;;;;;;;;;18.20;52.60;;;;;;5043539;28;19921;-72
2022/12/13 17:14:10;;;;;;;;;;;18.10;53.40;;;;;;5051960;28;19992;-72
2022/12/13 17:16:37;;;;;;;;;;;18.10;53.70;;;;;;5051341;28;19913;-72
2022/12/13 17:19:04;;;;;;;;;;;18.10;54.10;;;;;;5041066;28;19986;-72
2022/12/13 17:21:30;;;;;;;;;;;18.10;54.60;;;;;;5050512;28;19971;-72
2022/12/13 17:23:58;;;;;;;;;;;18.10;55.50;;;;;;5051776;28;19909;-72
2022/12/13 17:26:25;;;;;;;;;;;18.00;56.00;;;;;;5051525;28;19966;-72
2022/12/13 17:28:51;;;;;;;;;;;17.90;56.50;;;;;;5052206;28;19913;-72
2022/12/13 17:31:18;;;;;;;;;;;18.00;56.70;;;;;;5051023;28;19919;-72
2022/12/13 17:33:45;;;;;;;;;;;17.90;56.20;;;;;;5051442;28;20003;-72
2022/12/13 17:36:12;;;;;;;;;;;17.90;55.80;;;;;;5052023;28;20349;-72
2022/12/13 17:38:42;;;;;;;;;;;17.90;55.30;;;;;;5049093;28;19932;-72
2022/12/13 17:41:09;;;;;;;;;;;17.90;55.00;;;;;;5051475;28;19948;-72
2022/12/13 17:43:36;;;;;;;;;;;17.90;54.90;;;;;;5038549;28;19913;-72
2022/12/13 17:46:07;;;;;;;;;;;17.90;55.50;;;;;;5051533;28;19917;-72
2022/12/13 17:48:33;;;;;;;;;;;17.80;55.60;;;;;;5050997;28;19913;-72
2022/12/13 17:51:00;;;;;;;;;;;17.70;56.30;;;;;;5051553;28;19908;-72
2022/12/13 17:53:27;;;;;;;;;;;17.70;56.50;;;;;;5052398;28;20030;-72
2022/12/13 17:56:00;;;;;;;;;;;17.70;56.80;;;;;;5049289;28;19912;-72
2022/12/13 17:58:27;;;;;;;;;;;17.70;57.00;;;;;;5055207;28;19928;-72
2022/12/13 18:00:54;;;;;;;;;;;17.50;56.90;;;;;;5053688;28;19919;-72
2022/12/13 18:03:20;;;;;;;;;;;17.50;56.90;;;;;;5055802;28;19912;-72
2022/12/13 18:05:56;;;;;;;;;;;17.60;57.60;;;;;;5055034;28;20337;-72
2022/12/13 18:08:23;;;;;;;;;;;17.50;58.60;;;;;;5055275;28;19916;-72
2022/12/13 18:10:54;;;;;;;;;;;17.40;58.50;;;;;;5054983;28;19931;-72
2022/12/13 18:13:21;;;;;;;;;;;17.30;59.40;;;;;;5037696;28;19921;-71
2022/12/13 18:15:47;;;;;;;;;;;17.30;60.20;;;;;;5053167;28;19983;-72
2022/12/13 18:18:14;;;;;;;;;;;17.30;60.50;;;;;;5054962;28;20296;-72
2022/12/13 18:20:41;;;;;;;;;;;17.20;60.80;;;;;;5053564;28;19912;-73
2022/12/13 18:23:07;;;;;;;;;;;17.20;61.00;;;;;;5053564;28;19915;-73
2022/12/13 18:25:34;;;;;;;;;;;17.20;61.10;;;;;;5051040;28;19913;-72
2022/12/13 18:28:01;;;;;;;;;;;17.20;60.40;;;;;;5048422;28;20027;-72
2022/12/13 18:30:29;;;;;;;;;;;17.20;60.30;;;;;;5053597;28;20451;-72
2022/12/13 18:32:56;;;;;;;;;;;17.30;59.90;;;;;;5051850;28;19913;-72
2022/12/13 18:35:23;;;;;;;;;;;17.30;60.00;;;;;;5032253;28;19996;-70
2022/12/13 18:37:50;;;;;;;;;;;17.30;60.40;;;;;;5053561;28;20078;-72
2022/12/13 18:40:17;;;;;;;;;;;17.30;60.40;;;;;;5052935;28;19972;-71
2022/12/13 18:42:44;;;;;;;;;;;17.30;60.20;;;;;;5054182;28;19916;-72
2022/12/13 18:45:10;;;;;;;;;;;17.30;60.40;;;;;;5053968;28;19909;-73
2022/12/13 18:47:37;;;;;;;;;;;17.40;60.30;;;;;;5041850;28;20346;-73
2022/12/13 18:50:04;;;;;;;;;;;17.40;59.90;;;;;;5053636;28;19909;-73
2022/12/13 18:52:30;;;;;;;;;;;17.50;60.50;;;;;;5045191;28;19941;-72
2022/12/13 18:54:57;;;;;;;;;;;17.50;61.10;;;;;;5053494;28;19955;-73
2022/12/13 18:57:24;;;;;;;;;;;17.60;61.10;;;;;;5056330;28;19924;-73
2022/12/13 18:59:50;;;;;;;;;;;17.70;61.30;;;;;;5052770;28;19956;-73
2022/12/13 19:02:17;;;;;;;;;;;17.70;62.10;;;;;;5052371;28;19964;-72
2022/12/13 19:04:46;;;;;;;;;;;17.70;62.10;;;;;;5045119;28;19916;-72
2022/12/13 19:07:13;;;;;;;;;;;17.80;62.40;;;;;;5050963;28;19917;-72
2022/12/13 19:09:39;;;;;;;;;;;17.80;62.60;;;;;;5032483;28;19913;-72
2022/12/13 19:12:06;;;;;;;;;;;17.80;62.80;;;;;;5043247;28;19917;-72
2022/12/13 19:14:32;;;;;;;;;;;17.90;62.40;;;;;;5054041;28;19909;-72
2022/12/13 19:16:59;;;;;;;;;;;17.90;63.00;;;;;;5052502;28;19955;-72
2022/12/13 19:19:25;;;;;;;;;;;18.10;62.20;;;;;;5049320;28;20012;-72
2022/12/13 19:21:52;;;;;;;;;;;18.10;61.60;;;;;;5052454;28;19962;-72
2022/12/13 19:24:19;;;;;;;;;;;18.20;61.70;;;;;;5051022;28;19920;-72
2022/12/13 19:26:45;;;;;;;;;;;18.20;61.60;;;;;;5050566;28;20047;-72
2022/12/13 19:29:13;;;;;;;;;;;18.30;61.50;;;;;;5045556;28;20239;-72
2022/12/13 19:31:39;;;;;;;;;;;18.30;61.70;;;;;;5052391;28;20462;-72
2022/12/13 19:34:06;;;;;;;;;;;18.40;61.60;;;;;;5052833;28;20012;-72
2022/12/13 19:36:32;;;;;;;;;;;18.50;61.40;;;;;;5051861;28;19919;-72
2022/12/13 19:38:59;;;;;;;;;;;18.60;61.70;;;;;;5053876;28;20015;-72
2022/12/13 19:41:26;;;;;;;;;;;18.70;62.10;;;;;;5052499;28;19919;-72
2022/12/13 19:43:53;;;;;;;;;;;18.70;62.20;;;;;;5052979;28;19948;-72
2022/12/13 19:46:19;;;;;;;;;;;18.80;61.70;;;;;;5053250;28;20065;-72
2022/12/13 19:48:46;;;;;;;;;;;18.70;61.60;;;;;;5052442;28;19913;-72
2022/12/13 19:51:12;;;;;;;;;;;18.70;61.40;;;;;;5034825;28;19917;-72
2022/12/13 19:53:40;;;;;;;;;;;18.70;60.70;;;;;;5051796;28;20433;-72
2022/12/13 19:56:08;;;;;;;;;;;18.70;60.80;;;;;;5052707;28;19913;-72
2022/12/13 19:58:35;;;;;;;;;;;18.70;60.40;;;;;;5052969;28;19921;-72
2022/12/13 20:01:01;;;;;;;;;;;18.60;60.10;;;;;;5052502;28;19982;-72
2022/12/13 20:03:31;;;;;;;;;;;18.60;59.50;;;;;;5052619;28;19913;-72
2022/12/13 20:05:58;;;;;;;;;;;18.70;59.60;;;;;;5045699;28;19912;-72
2022/12/13 20:08:25;;;;;;;;;;;18.70;59.40;;;;;;5053316;28;19998;-72
2022/12/13 20:11:01;;;;;;;;;;;18.70;59.40;;;;;;5034043;28;20397;-72
2022/12/13 20:13:28;;;;;;;;;;;18.70;59.60;;;;;;5051304;28;20400;-72
2022/12/13 20:15:54;;;;;;;;;;;18.70;59.40;;;;;;5050662;28;19967;-72
2022/12/13 20:18:21;;;;;;;;;;;18.80;59.00;;;;;;5036062;28;19924;-73
2022/12/13 20:20:48;;;;;;;;;;;18.80;58.90;;;;;;5045369;28;20011;-73
2022/12/13 20:23:14;;;;;;;;;;;18.90;58.90;;;;;;5048652;28;20389;-73
2022/12/13 20:25:41;;;;;;;;;;;19.00;58.60;;;;;;5051479;28;19920;-73
2022/12/13 20:28:08;;;;;;;;;;;19.00;57.90;;;;;;5045229;28;19913;-72